Eviapetrol II — SY6858 — position and weather

sailwx.info

Track history (hours):
 
Tides and Currents Weather Stations Pressure Air Temp Water Temp Dewpoint Dewpoint Depression Visibility Wind Speed Wind Dir Waves Ship Positions

Eviapetrol II

Last reported at 2014-Sep-17 21:31 UTC. Time now 2014-Sep-17 21:39 UTC.
Position N 36°50' E 026°17'.

Length 78 m; draft 4.7 m.

Type: Tanker. MMSI: 240493000.

Date/timePositionNaut miles runAvg speedWind from/ knotsBaromVisibWave heightAir tempDewpointWater temp
2014-Sep-17 21:31N 36°50' E 026°17'9 9.0
2014-Sep-17 20:33N 36°45' E 026°08'10 9.5
2014-Sep-17 19:33N 36°39' E 025°58'27 9.2
2014-Sep-17 16:33N 36°17' E 025°38'19 9.4
2014-Sep-17 14:33N 36°00' E 025°27'10 9.7
2014-Sep-17 13:33N 35°52' E 025°22'10 9.7
2014-Sep-17 12:33N 35°43' E 025°17'8 0.6
2014-Sep-16 23:33N 35°37' E 025°10'9 9.2
2014-Sep-16 22:33N 35°46' E 025°13'9 9.2
2014-Sep-16 21:34N 35°55' E 025°17'9 9.5
2014-Sep-16 20:34N 36°03' E 025°22'10 9.7
2014-Sep-16 19:33N 36°12' E 025°26'9 9.3
2014-Sep-16 18:33N 36°21' E 025°30'4 3.9
2014-Sep-16 17:33N 36°25' E 025°29'0 0.0
2014-Sep-16 16:33N 36°25' E 025°29'0 0.0
2014-Sep-16 15:33N 36°25' E 025°29'0 0.0
2014-Sep-16 14:33N 36°25' E 025°29'0 0.0
2014-Sep-16 13:33N 36°25' E 025°29'0 0.0
2014-Sep-16 12:33N 36°25' E 025°29'0 0.0
2014-Sep-16 11:33N 36°25' E 025°29'0 0.0
2014-Sep-16 10:33N 36°25' E 025°29'0 0.0
2014-Sep-16 09:33N 36°25' E 025°29'0 0.0
2014-Sep-16 08:33N 36°25' E 025°29'0 0.0
2014-Sep-16 07:33N 36°25' E 025°29'0 0.0
2014-Sep-16 06:33N 36°25' E 025°29'0 0.0
2014-Sep-16 05:33N 36°25' E 025°29'0 0.0
2014-Sep-16 04:33N 36°25' E 025°29'1 0.7
2014-Sep-16 03:33N 36°25' E 025°30'5 5.1
2014-Sep-16 02:33N 36°29' E 025°26'10 9.7
2014-Sep-16 01:33N 36°36' E 025°19'10 9.9
2014-Sep-16 00:33N 36°44' E 025°11'10 9.7
2014-Sep-15 23:33N 36°50' E 025°02'10 9.7
2014-Sep-15 22:33N 36°57' E 024°53'1010.4
2014-Sep-15 21:33N 37°04' E 024°43'1010.4
2014-Sep-15 20:33N 37°11' E 024°34'10 9.7
2014-Sep-15 19:33N 37°16' E 024°23'41 9.6
2014-Sep-15 15:20N 37°40' E 023°42'8 9.7
2014-Sep-15 14:33N 37°47' E 023°38'8 8.4
2014-Sep-15 13:33N 37°55' E 023°35'6 6.1
2014-Sep-15 12:33N 38°01' E 023°33'0 0.3
2014-Sep-15 11:28N 38°01' E 023°33'0 0.0
2014-Sep-15 01:08N 38°01' E 023°33'3 0.2
2014-Sep-14 12:32N 38°02' E 023°36'3 1.0
2014-Sep-14 09:05N 38°02' E 023°32'0 0.0
2014-Sep-14 08:29N 38°02' E 023°32'0 0.0
2014-Sep-14 07:24N 38°02' E 023°32'13 1.1
2014-Sep-13 19:33N 37°52' E 023°21'45 9.0
2014-Sep-13 14:29N 37°19' E 024°00'1010.2
2014-Sep-13 13:33N 37°13' E 024°09'1110.1
2014-Sep-13 12:28N 37°06' E 024°20'910.0
2014-Sep-13 11:32N 37°01' E 024°30'1010.3
2014-Sep-13 10:33N 36°54' E 024°39'1010.3
2014-Sep-13 09:33N 36°52' E 024°52'1110.7
2014-Sep-13 08:33N 36°51' E 025°05'1110.7
2014-Sep-13 07:33N 36°49' E 025°18'1010.1
2014-Sep-13 06:33N 36°47' E 025°31'10 9.6
2014-Sep-13 05:33N 36°46' E 025°43'10 9.8
2014-Sep-13 04:33N 36°44' E 025°55'1010.1
2014-Sep-13 03:33N 36°43' E 026°07'1010.1
2014-Sep-13 02:33N 36°41' E 026°20'1010.0
2014-Sep-13 01:32N 36°39' E 026°32'2010.0
2014-Sep-12 23:32N 36°33' E 026°56'53 1.0
2014-Sep-10 20:05N 36°11' E 025°56'510.3
2014-Sep-10 19:33N 36°14' E 025°51'1010.2
2014-Sep-10 18:33N 36°20' E 025°40'1010.4
2014-Sep-10 17:33N 36°27' E 025°31'1010.2
2014-Sep-10 16:33N 36°35' E 025°22'1010.3
2014-Sep-10 15:33N 36°42' E 025°13'1010.2
2014-Sep-10 14:33N 36°49' E 025°04'1010.1
2014-Sep-10 13:33N 36°56' E 024°55'1010.1
2014-Sep-10 12:33N 37°03' E 024°45'1010.2
2014-Sep-10 11:33N 37°10' E 024°36'1010.2
2014-Sep-10 10:33N 37°15' E 024°25'4310.4
2014-Sep-10 06:24N 37°41' E 023°42'910.4
2014-Sep-10 05:33N 37°49' E 023°37'9 8.9
2014-Sep-10 04:33N 37°58' E 023°33'4 1.6
2014-Sep-10 02:16N 38°01' E 023°32'0 0.0
2014-Sep-10 01:19N 38°01' E 023°32'0 0.1
2014-Sep-09 23:28N 38°01' E 023°32'3 0.3
2014-Sep-09 13:18N 38°02' E 023°36'3 0.6
2014-Sep-09 09:06N 38°01' E 023°32'5 8.5
2014-Sep-09 08:33N 37°57' E 023°34'9 9.4
2014-Sep-09 07:33N 37°49' E 023°40'26 8.5
2014-Sep-09 04:29N 37°40' E 024°11'  
Track history (hours):
 
Tides and Currents Weather Stations Pressure Air Temp Water Temp Dewpoint Dewpoint Depression Visibility Wind Speed Wind Dir Waves Ship Positions

Eviapetrol II

Last reported at 2014-Sep-17 21:31 UTC. Time now 2014-Sep-17 21:39 UTC.
Position N 36°50' E 026°17'.

Length 78 m; draft 4.7 m.

Type: Tanker. MMSI: 240493000.

Date/timePositionNaut miles runAvg speedWind from/ knotsBaromVisibWave heightAir tempDewpointWater temp
2014-Sep-17 21:31N 36°50' E 026°17'9 9.0
2014-Sep-17 20:33N 36°45' E 026°08'10 9.5
2014-Sep-17 19:33N 36°39' E 025°58'27 9.2
2014-Sep-17 16:33N 36°17' E 025°38'19 9.4
2014-Sep-17 14:33N 36°00' E 025°27'10 9.7
2014-Sep-17 13:33N 35°52' E 025°22'10 9.7
2014-Sep-17 12:33N 35°43' E 025°17'8 0.6
2014-Sep-16 23:33N 35°37' E 025°10'9 9.2
2014-Sep-16 22:33N 35°46' E 025°13'9 9.2
2014-Sep-16 21:34N 35°55' E 025°17'9 9.5
2014-Sep-16 20:34N 36°03' E 025°22'10 9.7
2014-Sep-16 19:33N 36°12' E 025°26'9 9.3
2014-Sep-16 18:33N 36°21' E 025°30'4 3.9
2014-Sep-16 17:33N 36°25' E 025°29'0 0.0
2014-Sep-16 16:33N 36°25' E 025°29'0 0.0
2014-Sep-16 15:33N 36°25' E 025°29'0 0.0
2014-Sep-16 14:33N 36°25' E 025°29'0 0.0
2014-Sep-16 13:33N 36°25' E 025°29'0 0.0
2014-Sep-16 12:33N 36°25' E 025°29'0 0.0
2014-Sep-16 11:33N 36°25' E 025°29'0 0.0
2014-Sep-16 10:33N 36°25' E 025°29'0 0.0
2014-Sep-16 09:33N 36°25' E 025°29'0 0.0
2014-Sep-16 08:33N 36°25' E 025°29'0 0.0
2014-Sep-16 07:33N 36°25' E 025°29'0 0.0
2014-Sep-16 06:33N 36°25' E 025°29'0 0.0
2014-Sep-16 05:33N 36°25' E 025°29'0 0.0
2014-Sep-16 04:33N 36°25' E 025°29'1 0.7
2014-Sep-16 03:33N 36°25' E 025°30'5 5.1
2014-Sep-16 02:33N 36°29' E 025°26'10 9.7
2014-Sep-16 01:33N 36°36' E 025°19'10 9.9
2014-Sep-16 00:33N 36°44' E 025°11'10 9.7
2014-Sep-15 23:33N 36°50' E 025°02'10 9.7
2014-Sep-15 22:33N 36°57' E 024°53'1010.4
2014-Sep-15 21:33N 37°04' E 024°43'1010.4
2014-Sep-15 20:33N 37°11' E 024°34'10 9.7
2014-Sep-15 19:33N 37°16' E 024°23'41 9.6
2014-Sep-15 15:20N 37°40' E 023°42'8 9.7
2014-Sep-15 14:33N 37°47' E 023°38'8 8.4
2014-Sep-15 13:33N 37°55' E 023°35'6 6.1
2014-Sep-15 12:33N 38°01' E 023°33'0 0.3
2014-Sep-15 11:28N 38°01' E 023°33'0 0.0
2014-Sep-15 01:08N 38°01' E 023°33'3 0.2
2014-Sep-14 12:32N 38°02' E 023°36'3 1.0
2014-Sep-14 09:05N 38°02' E 023°32'0 0.0
2014-Sep-14 08:29N 38°02' E 023°32'0 0.0
2014-Sep-14 07:24N 38°02' E 023°32'13 1.1
2014-Sep-13 19:33N 37°52' E 023°21'45 9.0
2014-Sep-13 14:29N 37°19' E 024°00'1010.2
2014-Sep-13 13:33N 37°13' E 024°09'1110.1
2014-Sep-13 12:28N 37°06' E 024°20'910.0
2014-Sep-13 11:32N 37°01' E 024°30'1010.3
2014-Sep-13 10:33N 36°54' E 024°39'1010.3
2014-Sep-13 09:33N 36°52' E 024°52'1110.7
2014-Sep-13 08:33N 36°51' E 025°05'1110.7
2014-Sep-13 07:33N 36°49' E 025°18'1010.1
2014-Sep-13 06:33N 36°47' E 025°31'10 9.6
2014-Sep-13 05:33N 36°46' E 025°43'10 9.8
2014-Sep-13 04:33N 36°44' E 025°55'1010.1
2014-Sep-13 03:33N 36°43' E 026°07'1010.1
2014-Sep-13 02:33N 36°41' E 026°20'1010.0
2014-Sep-13 01:32N 36°39' E 026°32'2010.0
2014-Sep-12 23:32N 36°33' E 026°56'53 1.0
2014-Sep-10 20:05N 36°11' E 025°56'510.3
2014-Sep-10 19:33N 36°14' E 025°51'1010.2
2014-Sep-10 18:33N 36°20' E 025°40'1010.4
2014-Sep-10 17:33N 36°27' E 025°31'1010.2
2014-Sep-10 16:33N 36°35' E 025°22'1010.3
2014-Sep-10 15:33N 36°42' E 025°13'1010.2
2014-Sep-10 14:33N 36°49' E 025°04'1010.1
2014-Sep-10 13:33N 36°56' E 024°55'1010.1
2014-Sep-10 12:33N 37°03' E 024°45'1010.2
2014-Sep-10 11:33N 37°10' E 024°36'1010.2
2014-Sep-10 10:33N 37°15' E 024°25'4310.4
2014-Sep-10 06:24N 37°41' E 023°42'910.4
2014-Sep-10 05:33N 37°49' E 023°37'9 8.9
2014-Sep-10 04:33N 37°58' E 023°33'4 1.6
2014-Sep-10 02:16N 38°01' E 023°32'0 0.0
2014-Sep-10 01:19N 38°01' E 023°32'0 0.1
2014-Sep-09 23:28N 38°01' E 023°32'3 0.3
2014-Sep-09 13:18N 38°02' E 023°36'3 0.6
2014-Sep-09 09:06N 38°01' E 023°32'5 8.5
2014-Sep-09 08:33N 37°57' E 023°34'9 9.4
2014-Sep-09 07:33N 37°49' E 023°40'26 8.5
2014-Sep-09 04:29N 37°40' E 024°11'  

Dump ship's entire track history